createdAt,value
2023-02-15T00:01:22.303Z,102432.05
2023-02-15T00:03:57.678Z,102429.09
2023-02-15T00:06:30.932Z,102432.77
2023-02-15T00:09:05.762Z,102433.33
2023-02-15T00:11:50.965Z,102434.98
2023-02-15T00:14:25.079Z,102436.69
2023-02-15T00:17:00.974Z,102442.24
2023-02-15T00:19:33.593Z,102437.97
2023-02-15T00:22:06.613Z,102438.63
2023-02-15T00:24:39.561Z,102433.13
2023-02-15T00:27:13.078Z,102435.10
2023-02-15T00:29:46.849Z,102431.34
2023-02-15T00:32:18.050Z,102432.94
2023-02-15T00:34:52.806Z,102427.33
2023-02-15T00:37:27.166Z,102427.63
2023-02-15T00:40:06.447Z,102431.77
2023-02-15T00:42:38.775Z,102426.82
2023-02-15T00:45:17.349Z,102422.48
2023-02-15T00:47:50.787Z,102416.55
2023-02-15T00:50:24.018Z,102411.20
2023-02-15T00:52:59.469Z,102404.36
2023-02-15T00:55:32.630Z,102399.95
2023-02-15T00:58:04.683Z,102401.39
2023-02-15T01:00:37.196Z,102401.05
2023-02-15T01:03:14.860Z,102399.79
2023-02-15T01:05:47.101Z,102400.31
2023-02-15T01:08:19.740Z,102399.27
2023-02-15T01:10:52.550Z,102399.45
2023-02-15T01:13:25.183Z,102395.20
2023-02-15T01:16:02.458Z,102390.25
2023-02-15T01:18:35.015Z,102390.58
2023-02-15T01:21:14.965Z,102385.70
2023-02-15T01:23:48.324Z,102387.25
2023-02-15T01:26:21.290Z,102386.95
2023-02-15T01:28:54.154Z,102390.56
2023-02-15T01:31:26.677Z,102391.13
2023-02-15T01:33:59.078Z,102384.56
2023-02-15T01:36:33.523Z,102384.52
2023-02-15T01:39:04.027Z,102380.60
2023-02-15T01:41:36.153Z,102381.94
2023-02-15T01:44:40.850Z,102381.78
2023-02-15T01:47:17.470Z,102381.18
2023-02-15T01:49:50.072Z,102379.41
2023-02-15T01:52:22.903Z,102379.77
2023-02-15T01:54:54.878Z,102378.89
2023-02-15T01:57:28.475Z,102383.80
2023-02-15T02:00:05.628Z,102384.67
2023-02-15T02:02:37.933Z,102379.54
2023-02-15T02:05:10.976Z,102380.03
2023-02-15T02:07:46.724Z,102374.33
2023-02-15T02:10:23.430Z,102372.52
2023-02-15T02:12:56.897Z,102374.60
2023-02-15T02:15:33.552Z,102375.17
2023-02-15T02:18:18.075Z,102372.17
2023-02-15T02:21:14.474Z,102369.91
2023-02-15T02:23:57.006Z,102365.54
2023-02-15T02:27:03.934Z,102358.70
2023-02-15T02:29:58.070Z,102356.13
2023-02-15T02:35:44.097Z,102350.23
2023-02-15T02:38:48.233Z,102347.94
2023-02-15T02:41:48.862Z,102346.66
2023-02-15T02:45:06.162Z,102347.73
2023-02-15T02:48:11.443Z,102346.73
2023-02-15T02:51:09.483Z,102349.83
2023-02-15T02:54:03.012Z,102345.89
2023-02-15T02:56:41.396Z,102341.34
2023-02-15T02:59:20.060Z,102342.27
2023-02-15T03:01:58.392Z,102340.71
2023-02-15T03:04:34.250Z,102339.32
2023-02-15T03:07:10.643Z,102344.52
2023-02-15T03:09:46.641Z,102342.93
2023-02-15T03:12:23.655Z,102341.00
2023-02-15T03:15:03.550Z,102338.95
2023-02-15T03:17:43.382Z,102337.29
2023-02-15T03:20:22.002Z,102339.44
2023-02-15T03:22:57.928Z,102336.63
2023-02-15T03:25:34.427Z,102334.44
2023-02-15T03:28:10.324Z,102331.56
2023-02-15T03:34:39.706Z,102338.64
2023-02-15T03:37:57.401Z,102334.58
2023-02-15T03:41:27.564Z,102337.03
2023-02-15T03:44:39.455Z,102339.46
2023-02-15T03:47:20.542Z,102339.62
2023-02-15T03:50:02.824Z,102338.36
2023-02-15T03:52:51.316Z,102337.13
2023-02-15T03:55:37.729Z,102333.18
2023-02-15T03:58:37.093Z,102327.86
2023-02-15T04:01:34.962Z,102328.44
2023-02-15T04:07:47.757Z,102319.62
2023-02-15T04:10:49.855Z,102320.58
2023-02-15T04:13:24.097Z,102318.11
2023-02-15T04:16:08.479Z,102319.38
2023-02-15T04:19:01.958Z,102319.30
2023-02-15T04:21:53.413Z,102321.81
2023-02-15T04:24:43.354Z,102323.55
2023-02-15T04:27:17.877Z,102321.38
2023-02-15T04:29:53.346Z,102321.35
2023-02-15T04:32:26.555Z,102324.40
2023-02-15T04:39:03.841Z,102311.77
2023-02-15T04:41:44.630Z,102312.21
2023-02-15T04:44:21.105Z,102312.59
2023-02-15T04:50:47.274Z,102311.98
2023-02-15T04:53:46.120Z,102313.73
2023-02-15T04:56:33.983Z,102313.81
2023-02-15T04:59:19.673Z,102318.33
2023-02-15T05:02:00.106Z,102320.45
2023-02-15T05:04:39.678Z,102315.90
2023-02-15T05:07:19.446Z,102318.55
2023-02-15T05:09:53.759Z,102316.23
2023-02-15T05:12:26.872Z,102318.89
2023-02-15T05:15:03.116Z,102323.58
2023-02-15T05:17:36.124Z,102328.89
2023-02-15T05:20:11.443Z,102331.10
2023-02-15T05:22:44.011Z,102332.28
2023-02-15T05:25:33.837Z,102332.91
2023-02-15T05:28:22.218Z,102337.21
2023-02-15T05:31:02.130Z,102342.07
2023-02-15T05:33:37.009Z,102346.20
2023-02-15T05:36:10.986Z,102340.63
2023-02-15T05:38:44.727Z,102338.61
2023-02-15T05:41:17.074Z,102338.92
2023-02-15T05:43:49.238Z,102339.80
2023-02-15T05:46:21.276Z,102338.30
2023-02-15T05:48:55.224Z,102333.80
2023-02-15T05:51:27.250Z,102333.70
2023-02-15T05:54:01.550Z,102334.92
2023-02-15T05:56:42.104Z,102333.50
2023-02-15T05:59:15.052Z,102335.30
2023-02-15T06:01:47.881Z,102335.73
2023-02-15T06:04:21.113Z,102336.72
2023-02-15T06:06:53.839Z,102336.67
2023-02-15T06:09:26.736Z,102338.31
2023-02-15T06:11:58.978Z,102342.65
2023-02-15T06:14:31.375Z,102342.71
2023-02-15T06:17:04.252Z,102342.42
2023-02-15T06:19:42.377Z,102343.52
2023-02-15T06:22:17.791Z,102349.67
2023-02-15T06:24:52.459Z,102348.93
2023-02-15T06:27:30.045Z,102349.00
2023-02-15T06:30:02.720Z,102349.98
2023-02-15T06:32:36.352Z,102350.29
2023-02-15T06:35:09.749Z,102352.45
2023-02-15T06:37:42.659Z,102350.77
2023-02-15T06:40:15.898Z,102353.38
2023-02-15T06:42:52.159Z,102354.77
2023-02-15T06:45:24.482Z,102353.98
2023-02-15T06:47:56.604Z,102355.83
2023-02-15T06:50:29.158Z,102349.95
2023-02-15T06:53:02.858Z,102349.27
2023-02-15T06:55:35.468Z,102345.54
2023-02-15T06:58:07.452Z,102347.19
2023-02-15T07:00:39.613Z,102347.42
2023-02-15T07:03:15.135Z,102349.67
2023-02-15T07:05:49.948Z,102349.65
2023-02-15T07:08:22.828Z,102351.73
2023-02-15T07:11:16.465Z,102349.67
2023-02-15T07:13:51.548Z,102349.08
2023-02-15T07:16:25.390Z,102343.56
2023-02-15T07:18:57.510Z,102344.61
2023-02-15T07:21:32.120Z,102338.83
2023-02-15T07:24:04.626Z,102339.13
2023-02-15T07:27:19.772Z,102341.73
2023-02-15T07:30:11.045Z,102342.23
2023-02-15T07:33:25.447Z,102339.60
2023-02-15T07:36:04.190Z,102334.46
2023-02-15T07:38:48.947Z,102335.52
2023-02-15T07:41:24.840Z,102335.67
2023-02-15T07:43:59.161Z,102333.09
2023-02-15T07:46:40.760Z,102335.27
2023-02-15T07:49:20.848Z,102332.17
2023-02-15T07:51:53.096Z,102332.48
2023-02-15T07:54:25.106Z,102329.59
2023-02-15T07:56:58.014Z,102326.30
2023-02-15T07:59:30.151Z,102326.64
2023-02-15T08:02:01.998Z,102329.43
2023-02-15T08:04:33.846Z,102328.07
2023-02-15T08:07:06.560Z,102329.79
2023-02-15T08:09:38.441Z,102324.16
2023-02-15T08:12:10.397Z,102318.42
2023-02-15T08:14:42.232Z,102317.37
2023-02-15T08:17:14.139Z,102313.86
2023-02-15T08:19:47.902Z,102316.02
2023-02-15T08:22:19.776Z,102319.59
2023-02-15T08:24:51.560Z,102320.03
2023-02-15T08:27:27.705Z,102319.04
2023-02-15T08:30:00.548Z,102315.98
2023-02-15T08:32:32.649Z,102315.87
2023-02-15T08:35:04.875Z,102315.62
2023-02-15T08:37:36.710Z,102314.17
2023-02-15T08:40:10.346Z,102315.95
2023-02-15T08:42:42.240Z,102313.39
2023-02-15T08:45:14.029Z,102308.90
2023-02-15T08:47:46.052Z,102308.22
2023-02-15T08:50:17.964Z,102304.17
2023-02-15T08:52:49.982Z,102301.36
2023-02-15T08:55:21.887Z,102299.96
2023-02-15T08:57:56.524Z,102298.38
2023-02-15T09:00:29.518Z,102298.21
2023-02-15T09:03:03.288Z,102296.01
2023-02-15T09:05:35.804Z,102293.09
2023-02-15T09:08:07.988Z,102291.70
2023-02-15T09:10:40.450Z,102290.13
2023-02-15T09:13:12.478Z,102290.07
2023-02-15T09:15:46.820Z,102285.63
2023-02-15T09:18:18.354Z,102286.30
2023-02-15T09:20:50.475Z,102285.69
2023-02-15T09:23:27.175Z,102286.43
2023-02-15T09:25:59.599Z,102286.15
2023-02-15T09:28:31.902Z,102287.17
2023-02-15T09:31:10.856Z,102288.38
2023-02-15T09:33:43.895Z,102284.90
2023-02-15T09:36:22.756Z,102284.20
2023-02-15T09:38:59.444Z,102282.38
2023-02-15T09:41:57.737Z,102286.46
2023-02-15T09:44:36.469Z,102287.34
2023-02-15T09:47:23.027Z,102286.04
2023-02-15T09:50:03.157Z,102283.98
2023-02-15T09:52:49.644Z,102279.52
2023-02-15T09:55:39.317Z,102277.84
2023-02-15T09:58:19.078Z,102281.15
2023-02-15T10:00:56.590Z,102283.18
2023-02-15T10:03:47.591Z,102285.12
2023-02-15T10:06:43.234Z,102281.16
2023-02-15T10:09:38.614Z,102280.92
2023-02-15T10:12:45.501Z,102276.78
2023-02-15T10:15:40.716Z,102271.45
2023-02-15T10:18:36.171Z,102266.27
2023-02-15T10:21:37.792Z,102263.63
2023-02-15T10:24:26.143Z,102258.89
2023-02-15T10:27:01.072Z,102255.71
2023-02-15T10:29:39.147Z,102249.23
2023-02-15T10:32:23.930Z,102248.95
2023-02-15T10:35:01.204Z,102244.31
2023-02-15T10:37:46.244Z,102245.78
2023-02-15T10:40:31.632Z,102248.10
2023-02-15T10:43:26.471Z,102241.43
2023-02-15T10:46:16.780Z,102239.05
2023-02-15T10:49:09.718Z,102236.02
2023-02-15T10:51:58.889Z,102234.72
2023-02-15T10:54:35.918Z,102230.16
2023-02-15T10:57:17.532Z,102224.88
2023-02-15T11:00:06.818Z,102221.33
2023-02-15T11:02:52.569Z,102220.20
2023-02-15T11:05:39.963Z,102214.77
2023-02-15T11:08:14.001Z,102213.33
2023-02-15T11:10:47.628Z,102214.68
2023-02-15T11:13:28.534Z,102211.23
2023-02-15T11:16:03.432Z,102211.27
2023-02-15T11:18:38.844Z,102213.21
2023-02-15T11:21:13.939Z,102211.37
2023-02-15T11:23:47.218Z,102208.36
2023-02-15T11:26:23.938Z,102202.90
2023-02-15T11:29:03.456Z,102199.90
2023-02-15T11:31:45.980Z,102197.92
2023-02-15T11:34:25.427Z,102195.45
2023-02-15T11:37:02.788Z,102196.96
2023-02-15T11:39:38.235Z,102194.73
2023-02-15T11:42:15.212Z,102195.79
2023-02-15T11:44:53.169Z,102195.67
2023-02-15T11:47:25.092Z,102195.50
2023-02-15T11:49:57.089Z,102199.38
2023-02-15T11:52:29.255Z,102194.52
2023-02-15T11:55:04.031Z,102194.28
2023-02-15T11:57:40.066Z,102190.67
2023-02-15T12:00:16.966Z,102185.05
2023-02-15T12:02:52.621Z,102175.21
2023-02-15T12:05:27.565Z,102177.80
2023-02-15T12:08:05.025Z,102178.73
2023-02-15T12:10:51.093Z,102179.40
2023-02-15T12:13:24.805Z,102179.50
2023-02-15T12:16:01.147Z,102175.38
2023-02-15T12:18:41.702Z,102172.23
2023-02-15T12:21:16.534Z,102168.30
2023-02-15T12:23:52.812Z,102165.15
2023-02-15T12:26:30.386Z,102164.00
2023-02-15T12:29:03.800Z,102162.09
2023-02-15T12:31:41.505Z,102161.17
2023-02-15T12:34:19.073Z,102159.11
2023-02-15T12:37:02.856Z,102155.73
2023-02-15T12:39:35.318Z,102151.10
2023-02-15T12:42:16.269Z,102144.29
2023-02-15T12:45:00.551Z,102140.88
2023-02-15T12:47:32.595Z,102137.16
2023-02-15T12:50:34.556Z,102136.79
2023-02-15T12:53:15.690Z,102132.36
2023-02-15T12:55:57.090Z,102132.77
2023-02-15T12:58:31.885Z,102126.98
2023-02-15T13:01:15.359Z,102131.91
2023-02-15T13:04:01.310Z,102129.66
2023-02-15T13:06:36.225Z,102124.38
2023-02-15T13:09:16.510Z,102121.39
2023-02-15T13:11:48.976Z,102119.23
2023-02-15T13:14:33.130Z,102113.78
2023-02-15T13:17:08.952Z,102110.52
2023-02-15T13:19:45.575Z,102108.30
2023-02-15T13:22:21.490Z,102103.52
2023-02-15T13:24:55.826Z,102106.03
2023-02-15T13:27:28.612Z,102103.03
2023-02-15T13:30:03.155Z,102101.92
2023-02-15T13:32:43.613Z,102093.61
2023-02-15T13:35:18.686Z,102088.16
2023-02-15T13:38:00.032Z,102089.83
2023-02-15T13:40:37.890Z,102088.17
2023-02-15T13:43:33.065Z,102086.48
2023-02-15T13:46:23.930Z,102085.18
2023-02-15T13:49:05.245Z,102087.02
2023-02-15T13:51:43.915Z,102087.46
2023-02-15T13:54:33.781Z,102087.13
2023-02-15T13:57:22.486Z,102091.13
2023-02-15T14:00:17.312Z,102090.08
2023-02-15T14:03:11.291Z,102087.44
2023-02-15T14:05:55.581Z,102088.06
2023-02-15T14:08:39.305Z,102084.47
2023-02-15T14:11:19.732Z,102083.39
2023-02-15T14:14:08.580Z,102082.55
2023-02-15T14:17:04.289Z,102079.84
2023-02-15T14:19:42.450Z,102075.17
2023-02-15T14:22:24.496Z,102072.73
2023-02-15T14:25:05.330Z,102069.39
2023-02-15T14:27:53.247Z,102069.29
2023-02-15T14:30:35.584Z,102063.16
2023-02-15T14:33:34.931Z,102060.34
2023-02-15T14:36:15.944Z,102060.04
2023-02-15T14:39:52.854Z,102061.27
2023-02-15T14:42:31.074Z,102063.13
2023-02-15T14:45:07.506Z,102061.40
2023-02-15T14:47:41.648Z,102058.21
2023-02-15T14:50:45.950Z,102059.23
2023-02-15T14:53:37.708Z,102060.27
2023-02-15T14:56:23.688Z,102054.98
2023-02-15T14:59:23.084Z,102053.80
2023-02-15T15:02:00.854Z,102051.26
2023-02-15T15:04:36.864Z,102047.20
2023-02-15T15:07:23.106Z,102045.80
2023-02-15T15:10:17.247Z,102044.90
2023-02-15T15:12:50.477Z,102036.09
2023-02-15T15:15:59.092Z,102036.89
2023-02-15T15:19:04.107Z,102038.67
2023-02-15T15:21:57.602Z,102037.51
2023-02-15T15:24:55.330Z,102033.84
2023-02-15T15:27:57.304Z,102028.34
2023-02-15T15:30:55.673Z,102026.02
2023-02-15T15:33:54.677Z,102025.61
2023-02-15T15:37:07.116Z,102022.58
2023-02-15T15:40:11.370Z,102022.52
2023-02-15T15:42:52.652Z,102022.70
2023-02-15T15:45:45.770Z,102018.89
2023-02-15T15:48:34.583Z,102016.30
2023-02-15T15:51:13.947Z,102013.17
2023-02-15T15:53:50.029Z,102011.80
2023-02-15T15:56:24.255Z,102006.35
2023-02-15T15:58:58.519Z,102004.75
2023-02-15T16:01:32.570Z,102005.39
2023-02-15T16:04:02.993Z,102002.70
2023-02-15T16:06:38.104Z,102005.34
2023-02-15T16:09:21.148Z,102006.36
2023-02-15T16:11:59.408Z,102003.68
2023-02-15T16:14:35.246Z,102007.77
2023-02-15T16:17:11.495Z,102005.47
2023-02-15T16:19:45.074Z,102002.54
2023-02-15T16:22:48.232Z,102001.06
2023-02-15T16:25:47.181Z,102000.38
2023-02-15T16:28:29.207Z,102005.56
2023-02-15T16:31:17.646Z,102000.27
2023-02-15T16:33:57.593Z,101997.02
2023-02-15T16:36:31.668Z,101991.48
2023-02-15T16:39:29.850Z,101986.61
2023-02-15T16:42:05.768Z,101987.09
2023-02-15T16:44:38.535Z,101988.59
2023-02-15T16:47:18.793Z,101986.74
2023-02-15T16:49:57.193Z,101987.02
2023-02-15T16:52:36.808Z,101989.46
2023-02-15T16:55:20.887Z,101988.86
2023-02-15T16:57:54.282Z,101982.63
2023-02-15T17:00:57.923Z,101978.56
2023-02-15T17:03:40.513Z,101975.88
2023-02-15T17:06:27.547Z,101972.40
2023-02-15T17:09:19.555Z,101969.77
2023-02-15T17:11:56.955Z,101972.98
2023-02-15T17:14:46.061Z,101977.02
2023-02-15T17:17:24.986Z,101974.70
2023-02-15T17:20:04.402Z,101969.21
2023-02-15T17:22:50.092Z,101967.81
2023-02-15T17:25:31.319Z,101962.46
2023-02-15T17:28:03.742Z,101956.70
2023-02-15T17:30:38.172Z,101951.01
2023-02-15T17:33:24.919Z,101946.20
2023-02-15T17:36:12.516Z,101942.17
2023-02-15T17:39:05.672Z,101941.55
2023-02-15T17:41:39.860Z,101942.02
2023-02-15T17:44:15.979Z,101942.48
2023-02-15T17:46:48.388Z,101940.25
2023-02-15T17:49:29.477Z,101937.75
2023-02-15T17:52:04.348Z,101929.66
2023-02-15T17:54:56.043Z,101927.73
2023-02-15T17:57:28.914Z,101922.31
2023-02-15T18:00:18.932Z,101916.56
2023-02-15T18:03:11.210Z,101911.52
2023-02-15T18:06:27.036Z,101913.84
2023-02-15T18:09:48.092Z,101914.93
2023-02-15T18:12:28.436Z,101920.61
2023-02-15T18:15:05.924Z,101914.74
2023-02-15T18:17:41.821Z,101915.77
2023-02-15T18:20:22.086Z,101914.11
2023-02-15T18:22:55.623Z,101912.96
2023-02-15T18:25:29.145Z,101911.74
2023-02-15T18:28:07.569Z,101908.08
2023-02-15T18:30:44.099Z,101900.70
2023-02-15T18:33:31.428Z,101901.82
2023-02-15T18:36:08.500Z,101895.32
2023-02-15T18:38:44.534Z,101894.16
2023-02-15T18:41:21.059Z,101891.09
2023-02-15T18:43:57.353Z,101894.00
2023-02-15T18:46:29.956Z,101886.37
2023-02-15T18:49:02.204Z,101884.69
2023-02-15T18:51:40.262Z,101884.80
2023-02-15T18:54:20.207Z,101886.37
2023-02-15T18:56:59.704Z,101884.63
2023-02-15T18:59:40.942Z,101879.98
2023-02-15T19:02:23.232Z,101877.45
2023-02-15T19:04:57.967Z,101879.54
2023-02-15T19:07:32.483Z,101881.20
2023-02-15T19:10:10.196Z,101874.18
2023-02-15T19:12:42.764Z,101869.19
2023-02-15T19:15:24.067Z,101870.58
2023-02-15T19:17:59.343Z,101868.92
2023-02-15T19:20:34.014Z,101866.36
2023-02-15T19:23:06.432Z,101858.24
2023-02-15T19:25:42.988Z,101862.59
2023-02-15T19:28:18.554Z,101861.02
2023-02-15T19:30:50.473Z,101855.64
2023-02-15T19:33:24.201Z,101852.23
2023-02-15T19:35:57.562Z,101849.84
2023-02-15T19:38:32.705Z,101849.23
2023-02-15T19:41:08.452Z,101855.52
2023-02-15T19:43:40.882Z,101852.98
2023-02-15T19:46:20.005Z,101852.05
2023-02-15T19:48:52.873Z,101850.89
2023-02-15T19:51:26.999Z,101848.77
2023-02-15T19:53:59.004Z,101844.74
2023-02-15T19:56:31.458Z,101844.85
2023-02-15T19:59:03.542Z,101847.06
2023-02-15T20:01:35.809Z,101841.70
2023-02-15T20:04:08.016Z,101837.08
2023-02-15T20:06:40.024Z,101836.88
2023-02-15T20:09:20.706Z,101833.48
2023-02-15T20:11:53.128Z,101827.13
2023-02-15T20:14:25.616Z,101823.08
2023-02-15T20:16:57.630Z,101819.39
2023-02-15T20:19:29.504Z,101821.36
2023-02-15T20:22:01.338Z,101814.04
2023-02-15T20:24:33.761Z,101817.67
2023-02-15T20:27:07.084Z,101815.86
2023-02-15T20:29:39.616Z,101814.58
2023-02-15T20:32:12.727Z,101815.89
2023-02-15T20:34:45.165Z,101815.45
2023-02-15T20:37:26.353Z,101816.79
2023-02-15T20:39:58.377Z,101816.77
2023-02-15T20:42:30.435Z,101808.58
2023-02-15T20:45:03.104Z,101807.63
2023-02-15T20:47:35.269Z,101807.93
2023-02-15T20:50:08.144Z,101798.00
2023-02-15T20:52:40.009Z,101795.14
2023-02-15T20:55:16.097Z,101791.21
2023-02-15T20:57:48.720Z,101793.30
2023-02-15T21:00:24.013Z,101790.27
2023-02-15T21:02:58.433Z,101785.98
2023-02-15T21:05:33.305Z,101786.45
2023-02-15T21:08:07.388Z,101780.09
2023-02-15T21:10:39.747Z,101784.13
2023-02-15T21:13:22.263Z,101785.67
2023-02-15T21:15:55.454Z,101779.47
2023-02-15T21:18:29.398Z,101776.88
2023-02-15T21:21:03.159Z,101778.95
2023-02-15T21:23:34.771Z,101774.11
2023-02-15T21:26:07.862Z,101769.47
2023-02-15T21:28:41.349Z,101769.61
2023-02-15T21:31:18.789Z,101771.31
2023-02-15T21:33:51.006Z,101767.13
2023-02-15T21:36:25.240Z,101764.39
2023-02-15T21:38:55.635Z,101763.02
2023-02-15T21:41:47.601Z,101758.34
2023-02-15T21:44:38.171Z,101757.88
2023-02-15T21:47:37.992Z,101751.29
2023-02-15T21:50:30.252Z,101746.25
2023-02-15T21:53:02.297Z,101740.75
2023-02-15T21:55:34.768Z,101735.60
2023-02-15T21:58:07.016Z,101733.87
2023-02-15T22:00:38.959Z,101733.14
2023-02-15T22:03:25.120Z,101732.91
2023-02-15T22:06:32.178Z,101739.63
2023-02-15T22:09:44.122Z,101734.19
2023-02-15T22:12:49.486Z,101730.35
2023-02-15T22:15:26.236Z,101720.94
2023-02-15T22:18:01.197Z,101715.55
2023-02-15T22:20:41.323Z,101711.59
2023-02-15T22:23:33.676Z,101703.58
2023-02-15T22:26:10.742Z,101698.67
2023-02-15T22:29:00.566Z,101694.21
2023-02-15T22:31:39.719Z,101690.80
2023-02-15T22:34:51.469Z,101691.35
2023-02-15T22:38:37.650Z,101687.95
2023-02-15T22:42:11.567Z,101679.71
2023-02-15T22:45:28.306Z,101681.32
2023-02-15T22:48:04.577Z,101679.27
2023-02-15T22:50:37.789Z,101673.52
2023-02-15T22:53:12.039Z,101676.38
2023-02-15T22:55:47.983Z,101678.16
2023-02-15T22:58:26.409Z,101678.02
2023-02-15T23:01:00.598Z,101677.93
2023-02-15T23:03:36.466Z,101671.89
2023-02-15T23:06:10.491Z,101673.52
2023-02-15T23:08:43.886Z,101669.63
2023-02-15T23:11:16.528Z,101668.06
2023-02-15T23:13:52.247Z,101667.20
2023-02-15T23:16:24.425Z,101666.52
2023-02-15T23:19:01.529Z,101663.81
2023-02-15T23:21:35.175Z,101656.55
2023-02-15T23:24:20.736Z,101650.79
2023-02-15T23:26:53.766Z,101652.21
2023-02-15T23:29:28.573Z,101653.44
2023-02-15T23:32:01.402Z,101654.68
2023-02-15T23:34:45.102Z,101653.07
2023-02-15T23:37:32.522Z,101651.73
2023-02-15T23:40:22.655Z,101643.02
2023-02-15T23:42:56.571Z,101640.10
